Akiak, AK

4:24 AM AKDT on September 01, 2014 (GMT -0800)
Kwethluk AP, Kwethluk, AK | Change Station
CLOSE
Current Station
Airport
Location: Kwethluk AP, Kwethluk, AK,
Elevation: 26 ft
Nearby Weather Stations

Elev 26 ft 60.79 °N, 161.44 °W | Updated 2 hours ago

Overcast
Overcast
50 °F
Feels Like 50 °F
N
10
Wind Variable Wind from SSW

Today
High -- | Low -- °F
--% Chance of Precip.
Yesterday
High -- | Low -- °F
Precip. -- in
7:37 AM 9:49 PM
Waxing Crescent, 40% visible
Pressure 29.95 in
Visibility 10.0 miles
Clouds Mostly Cloudy 6000 ft
Overcast 8500 ft
Dew Point 47 °F
Humidity 89%
Rainfall 0.00 in
Snow Depth Not available.
UV 0 out of 12
Pollen Not available.
Air Quality Not available.
Flu Activity Not available.
METAR PFKW 010956Z AUTO 21009KT 10SM BKN060 OVC085 10/08 A2995 RMK AO2 SLP142 T01000083 $

More Conditions Fewer Conditions

Pressure 29.95 in
Visibility 10.0 miles
Clouds Mostly Cloudy 6000 ft
Overcast 8500 ft
Dew Point 47 °F
Humidity 89%
Rainfall 0.00 in
Snow Depth Not available.
UV 0 out of 12
Pollen Not available.
Air Quality Not available.
Flu Activity Not available.
METAR PFKW 010956Z AUTO 21009KT 10SM BKN060 OVC085 10/08 A2995 RMK AO2 SLP142 T01000083 $

More Conditions Fewer Conditions

10-Day Weather Forecast

Almanac

Astronomy

Sep. 01, 2014 Rise Set
Actual Time 7:37 AM AKDT 9:49 PM AKDT
Civil Twilight 6:51 AM AKDT 10:35 PM AKDT
Nautical Twilight 5:50 AM AKDT 11:36 PM AKDT
Astronomical Twilight 4:28 AM AKDT 12:55 AM AKDT
Moon 4:29 PM AKDT No Moon Set
Length of Visible Light 15h 44m
Length of Day
14h 11m
Tomorrow will be 5m 34s shorter.
Waxing Crescent, 40% of the Moon is Illuminated
Today
Waxing Crescent
Sep 2
First Quarter
Sep 8
Full
Sep 15
Last Quarter
Sep 24
New

Today's Extremes

State Highs State Lows

Community

WunderPhotos

Upload Photos

1,749,196 photos uploaded!

Nearby

Snow Depth

Station Depth Elevation
Rocky Point 4 in 500 ft
Mcneil Canyon 1 in 1320 ft
Port Graham 0 in 300 ft
MF Bradley River 2 in 2300 ft
Point Mackenzie 1 in 200 ft

Earthquake Activity

City Distance Mag. Time & Date
No recent earthquake activity has been reported nearby.
Minimum magnitude displayed is 2.5.

Coastal Water Temperatures

Place Temperature
No Stations Reporting

Nearby Weather Stations